Gaiac — FAA2693 — position and weather

sailwx.info

Track history (hours):
 
Tides and Currents Weather Stations Pressure Air Temp Water Temp Dewpoint Dewpoint Depression Visibility Wind Speed Wind Dir Waves Ship Positions

Gaiac

Last reported at 2018-May-21 17:48 UTC. Time now 2018-May-22 21:25 UTC.
Position S 22°16' E 166°25'.

Length 24 m; draft 5 m.

Type: Tug. MMSI: 540007250.

Date/timePositionNaut miles runAvg speedWind from/ knotsBaromVisibWave heightAir tempDewpointWater temp
2018-May-21 17:48S 22°16' E 166°25'1 3.2
2018-May-21 17:31S 22°16' E 166°26'0 0.0
2018-May-21 17:01S 22°16' E 166°26'  
2018-May-18 21:03S 22°16' E 166°25'0 0.0
2018-May-18 21:00S 22°16' E 166°25'1 1.5
2018-May-18 20:30S 22°16' E 166°26'1 1.1
2018-May-18 20:00S 22°15' E 166°26'1 1.1
2018-May-18 19:30S 22°16' E 166°25'0 0.0
2018-May-18 07:00S 22°16' E 166°25'1 2.3
2018-May-18 06:30S 22°17' E 166°24'2 3.4
2018-May-18 06:00S 22°16' E 166°26'0 0.3
2018-May-18 05:30S 22°16' E 166°26'0 0.0
2018-May-18 05:00S 22°16' E 166°26'0 0.0
2018-May-18 04:31S 22°16' E 166°26'0 0.1
2018-May-18 04:00S 22°16' E 166°26'1 2.2
2018-May-18 03:31S 22°17' E 166°25'3 5.6
2018-May-18 03:00S 22°15' E 166°24'2 3.7
2018-May-18 02:30S 22°16' E 166°25'0 0.0
2018-May-18 02:01S 22°16' E 166°25'0 0.0
2018-May-18 01:31S 22°16' E 166°25'0 0.0
2018-May-18 01:00S 22°16' E 166°25'0 0.0
2018-May-18 00:31S 22°16' E 166°25'0 0.0
2018-May-18 00:01S 22°16' E 166°25'0 0.0
2018-May-17 23:30S 22°16' E 166°25'0 0.0
2018-May-17 23:00S 22°16' E 166°25'0 0.0
2018-May-17 22:30S 22°16' E 166°25'0 0.2
2018-May-17 22:00S 22°16' E 166°25'0 0.5
2018-May-17 21:30S 22°16' E 166°25'0 0.0
2018-May-17 11:34S 22°16' E 166°25'1 7.8
2018-May-17 11:31S 22°16' E 166°26'0 0.4
2018-May-17 11:00S 22°16' E 166°26'1 1.6
2018-May-17 10:31S 22°16' E 166°25'0 0.0
2018-May-17 09:44S 22°16' E 166°25'2 8.0
2018-May-17 09:30S 22°15' E 166°24'3 5.6
2018-May-17 09:00S 22°16' E 166°26'0 0.2
2018-May-17 08:30S 22°16' E 166°26'0 0.1
2018-May-17 08:01S 22°16' E 166°26'0 0.4
2018-May-17 07:30S 22°16' E 166°26'0 0.2
2018-May-17 07:00S 22°17' E 166°26'1 1.1
2018-May-17 06:31S 22°17' E 166°26'1 1.5
2018-May-17 06:01S 22°16' E 166°26'0 0.0
2018-May-16 21:25S 22°16' E 166°26'1 1.9
2018-May-16 21:00S 22°17' E 166°26'1 1.8
2018-May-16 20:30S 22°16' E 166°26'1 1.9
2018-May-16 20:00S 22°17' E 166°26'3 6.4
2018-May-16 19:30S 22°15' E 166°23'2 4.3
2018-May-16 19:00S 22°16' E 166°25'0 0.0
2018-May-15 22:30S 22°16' E 166°25'1 1.5
2018-May-15 22:00S 22°16' E 166°26'0 0.4
2018-May-15 21:30S 22°16' E 166°26'0 0.7
2018-May-15 21:00S 22°15' E 166°26'0 0.2
2018-May-15 20:30S 22°15' E 166°26'0 0.0
2018-May-15 20:00S 22°15' E 166°26'0 0.9
2018-May-15 19:30S 22°16' E 166°26'1 1.2
2018-May-15 19:00S 22°15' E 166°25'1 1.1
2018-May-15 18:30S 22°16' E 166°25'0 0.0
2018-May-15 09:51S 22°16' E 166°26'0 1.0
2018-May-15 09:31S 22°16' E 166°26'1 1.2
2018-May-15 09:00S 22°16' E 166°25'0 0.0
2018-May-15 05:00S 22°16' E 166°25'1 1.6
2018-May-15 04:30S 22°16' E 166°26'0 0.4
2018-May-15 04:01S 22°16' E 166°26'1 1.9
2018-May-15 03:31S 22°16' E 166°25'0 0.0
2018-May-14 22:15S 22°16' E 166°25'1 3.3
2018-May-14 22:00S 22°16' E 166°26'0 0.2
2018-May-14 21:30S 22°16' E 166°26'0 0.3
2018-May-14 21:00S 22°16' E 166°26'0 0.2
2018-May-14 20:30S 22°16' E 166°26'1 1.8
2018-May-14 20:00S 22°15' E 166°25'1 1.8
2018-May-14 19:30S 22°16' E 166°26'1 1.7
2018-May-14 19:00S 22°15' E 166°25'1 1.3
2018-May-14 18:30S 22°16' E 166°25'0 0.0
2018-May-14 06:43S 22°16' E 166°25'1 3.4
2018-May-14 06:30S 22°16' E 166°26'0 0.1
2018-May-14 06:00S 22°16' E 166°26'1 1.3
2018-May-14 05:30S 22°16' E 166°25'0 0.0
2018-May-14 05:00S 22°16' E 166°25'1 1.7
2018-May-14 04:30S 22°16' E 166°26'0 0.1
2018-May-14 04:00S 22°16' E 166°26'3 5.7
2018-May-14 03:30S 22°15' E 166°23'2 4.4
2018-May-14 03:00S 22°17' E 166°24'2 3.5
2018-May-14 02:30S 22°17' E 166°26'3 6.5
2018-May-14 02:00S 22°16' E 166°23'3 5.3
2018-May-14 01:30S 22°15' E 166°26'0 0.0
2018-May-14 01:00S 22°15' E 166°26'0 0.5
2018-May-14 00:30S 22°16' E 166°26'1 2.2
2018-May-14 00:00S 22°15' E 166°25'0 0.4
2018-May-13 23:30S 22°15' E 166°25'2 3.4
2018-May-13 23:00S 22°15' E 166°23'3 5.9
2018-May-13 22:30S 22°16' E 166°26'0 0.1
2018-May-13 22:00S 22°16' E 166°26'1 2.1
2018-May-13 21:30S 22°17' E 166°26'0 0.2
2018-May-13 21:00S 22°17' E 166°26'2 4.1
2018-May-13 20:30S 22°16' E 166°24'2 4.6
2018-May-13 20:00S 22°14' E 166°24'0 0.2
2018-May-13 19:29S 22°14' E 166°24'1 2.4
2018-May-13 19:00S 22°15' E 166°25'1 1.5
2018-May-13 18:30S 22°16' E 166°25'0 0.0
2018-May-13 00:32S 22°16' E 166°25'0 0.2
2018-May-13 00:30S 22°16' E 166°25'2 3.7
2018-May-13 00:00S 22°14' E 166°24'3 5.9
2018-May-12 23:30S 22°17' E 166°25'1 2.2
2018-May-12 23:00S 22°16' E 166°26'1 1.8
2018-May-12 22:30S 22°17' E 166°26'0 0.3
2018-May-12 22:00S 22°17' E 166°26'1 1.9
2018-May-12 21:30S 22°16' E 166°26'0 0.0
2018-May-12 21:00S 22°16' E 166°26'0 0.0
2018-May-12 20:30S 22°16' E 166°26'0 0.0
2018-May-12 20:00S 22°16' E 166°26'0 0.8
2018-May-12 19:30S 22°16' E 166°26'0 0.0
2018-May-12 19:00S 22°16' E 166°26'1 2.7
2018-May-12 18:30S 22°17' E 166°25'2 3.0
2018-May-12 18:00S 22°15' E 166°25'1 1.4
2018-May-12 17:30S 22°16' E 166°25'0 0.0
2018-May-12 17:00S 22°16' E 166°25'0 0.0
2018-May-12 16:30S 22°16' E 166°25'0 0.0
2018-May-12 16:00S 22°16' E 166°25'0 0.0
2018-May-12 15:30S 22°16' E 166°25'0 0.0
2018-May-12 15:00S 22°16' E 166°25'0 0.0
2018-May-12 14:30S 22°16' E 166°25'0 0.0
2018-May-12 13:59S 22°16' E 166°25'0 0.0
2018-May-12 13:30S 22°16' E 166°25'1 1.9
2018-May-12 13:00S 22°15' E 166°26'0 0.6
2018-May-12 12:30S 22°16' E 166°26'0 0.4
2018-May-12 12:00S 22°16' E 166°26'0 0.1
2018-May-12 11:30S 22°16' E 166°26'0 0.3
2018-May-12 11:00S 22°16' E 166°26'2 4.1
2018-May-12 10:30S 22°17' E 166°24'2 4.1
2018-May-12 10:00S 22°16' E 166°26'1 1.3
2018-May-12 09:30S 22°17' E 166°26'3 5.8
2018-May-12 09:00S 22°15' E 166°24'2 3.8
2018-May-12 08:30S 22°16' E 166°25'0 0.0
2018-May-12 08:00S 22°16' E 166°25'1 1.5
2018-May-12 07:30S 22°16' E 166°26'0 0.2
2018-May-12 07:00S 22°16' E 166°26'1 2.4
2018-May-12 06:30S 22°15' E 166°25'1 2.5
2018-May-12 06:00S 22°14' E 166°24'0 0.7
2018-May-12 05:30S 22°15' E 166°24'2 4.1
2018-May-12 05:00S 22°15' E 166°26'1 1.8
2018-May-12 04:30S 22°16' E 166°25'0 0.0
2018-May-12 04:00S 22°16' E 166°25'0 0.0
2018-May-12 03:30S 22°16' E 166°25'0 0.0
2018-May-12 03:00S 22°16' E 166°25'0 0.0
2018-May-12 02:30S 22°16' E 166°25'0 0.0
2018-May-12 02:00S 22°16' E 166°25'0 0.0
2018-May-12 01:30S 22°16' E 166°25'0 0.0
2018-May-12 01:00S 22°16' E 166°25'0 0.0
2018-May-12 00:30S 22°16' E 166°25'0 0.0
2018-May-12 00:00S 22°16' E 166°25'0 0.0
2018-May-11 23:30S 22°16' E 166°25'0 0.0
2018-May-11 23:00S 22°16' E 166°25'0 0.0
2018-May-11 22:30S 22°16' E 166°25'0 0.0
2018-May-11 22:00S 22°16' E 166°25'0 0.0
2018-May-11 21:30S 22°16' E 166°25'0 0.0
2018-May-11 21:00S 22°16' E 166°25'0 0.0
2018-May-11 20:30S 22°16' E 166°25'0 0.0
2018-May-11 20:00S 22°16' E 166°25'0 0.0
2018-May-11 19:30S 22°16' E 166°25'0 0.0
2018-May-11 19:00S 22°16' E 166°25'0 0.0
2018-May-11 18:30S 22°16' E 166°25'0 0.0
2018-May-11 18:00S 22°16' E 166°25'  
Track history (hours):
 
Tides and Currents Weather Stations Pressure Air Temp Water Temp Dewpoint Dewpoint Depression Visibility Wind Speed Wind Dir Waves Ship Positions

Gaiac

Last reported at 2018-May-21 17:48 UTC. Time now 2018-May-22 21:25 UTC.
Position S 22°16' E 166°25'.

Length 24 m; draft 5 m.

Type: Tug. MMSI: 540007250.

Date/timePositionNaut miles runAvg speedWind from/ knotsBaromVisibWave heightAir tempDewpointWater temp
2018-May-21 17:48S 22°16' E 166°25'1 3.2
2018-May-21 17:31S 22°16' E 166°26'0 0.0
2018-May-21 17:01S 22°16' E 166°26'  
2018-May-18 21:03S 22°16' E 166°25'0 0.0
2018-May-18 21:00S 22°16' E 166°25'1 1.5
2018-May-18 20:30S 22°16' E 166°26'1 1.1
2018-May-18 20:00S 22°15' E 166°26'1 1.1
2018-May-18 19:30S 22°16' E 166°25'0 0.0
2018-May-18 07:00S 22°16' E 166°25'1 2.3
2018-May-18 06:30S 22°17' E 166°24'2 3.4
2018-May-18 06:00S 22°16' E 166°26'0 0.3
2018-May-18 05:30S 22°16' E 166°26'0 0.0
2018-May-18 05:00S 22°16' E 166°26'0 0.0
2018-May-18 04:31S 22°16' E 166°26'0 0.1
2018-May-18 04:00S 22°16' E 166°26'1 2.2
2018-May-18 03:31S 22°17' E 166°25'3 5.6
2018-May-18 03:00S 22°15' E 166°24'2 3.7
2018-May-18 02:30S 22°16' E 166°25'0 0.0
2018-May-18 02:01S 22°16' E 166°25'0 0.0
2018-May-18 01:31S 22°16' E 166°25'0 0.0
2018-May-18 01:00S 22°16' E 166°25'0 0.0
2018-May-18 00:31S 22°16' E 166°25'0 0.0
2018-May-18 00:01S 22°16' E 166°25'0 0.0
2018-May-17 23:30S 22°16' E 166°25'0 0.0
2018-May-17 23:00S 22°16' E 166°25'0 0.0
2018-May-17 22:30S 22°16' E 166°25'0 0.2
2018-May-17 22:00S 22°16' E 166°25'0 0.5
2018-May-17 21:30S 22°16' E 166°25'0 0.0
2018-May-17 11:34S 22°16' E 166°25'1 7.8
2018-May-17 11:31S 22°16' E 166°26'0 0.4
2018-May-17 11:00S 22°16' E 166°26'1 1.6
2018-May-17 10:31S 22°16' E 166°25'0 0.0
2018-May-17 09:44S 22°16' E 166°25'2 8.0
2018-May-17 09:30S 22°15' E 166°24'3 5.6
2018-May-17 09:00S 22°16' E 166°26'0 0.2
2018-May-17 08:30S 22°16' E 166°26'0 0.1
2018-May-17 08:01S 22°16' E 166°26'0 0.4
2018-May-17 07:30S 22°16' E 166°26'0 0.2
2018-May-17 07:00S 22°17' E 166°26'1 1.1
2018-May-17 06:31S 22°17' E 166°26'1 1.5
2018-May-17 06:01S 22°16' E 166°26'0 0.0
2018-May-16 21:25S 22°16' E 166°26'1 1.9
2018-May-16 21:00S 22°17' E 166°26'1 1.8
2018-May-16 20:30S 22°16' E 166°26'1 1.9
2018-May-16 20:00S 22°17' E 166°26'3 6.4
2018-May-16 19:30S 22°15' E 166°23'2 4.3
2018-May-16 19:00S 22°16' E 166°25'0 0.0
2018-May-15 22:30S 22°16' E 166°25'1 1.5
2018-May-15 22:00S 22°16' E 166°26'0 0.4
2018-May-15 21:30S 22°16' E 166°26'0 0.7
2018-May-15 21:00S 22°15' E 166°26'0 0.2
2018-May-15 20:30S 22°15' E 166°26'0 0.0
2018-May-15 20:00S 22°15' E 166°26'0 0.9
2018-May-15 19:30S 22°16' E 166°26'1 1.2
2018-May-15 19:00S 22°15' E 166°25'1 1.1
2018-May-15 18:30S 22°16' E 166°25'0 0.0
2018-May-15 09:51S 22°16' E 166°26'0 1.0
2018-May-15 09:31S 22°16' E 166°26'1 1.2
2018-May-15 09:00S 22°16' E 166°25'0 0.0
2018-May-15 05:00S 22°16' E 166°25'1 1.6
2018-May-15 04:30S 22°16' E 166°26'0 0.4
2018-May-15 04:01S 22°16' E 166°26'1 1.9
2018-May-15 03:31S 22°16' E 166°25'0 0.0
2018-May-14 22:15S 22°16' E 166°25'1 3.3
2018-May-14 22:00S 22°16' E 166°26'0 0.2
2018-May-14 21:30S 22°16' E 166°26'0 0.3
2018-May-14 21:00S 22°16' E 166°26'0 0.2
2018-May-14 20:30S 22°16' E 166°26'1 1.8
2018-May-14 20:00S 22°15' E 166°25'1 1.8
2018-May-14 19:30S 22°16' E 166°26'1 1.7
2018-May-14 19:00S 22°15' E 166°25'1 1.3
2018-May-14 18:30S 22°16' E 166°25'0 0.0
2018-May-14 06:43S 22°16' E 166°25'1 3.4
2018-May-14 06:30S 22°16' E 166°26'0 0.1
2018-May-14 06:00S 22°16' E 166°26'1 1.3
2018-May-14 05:30S 22°16' E 166°25'0 0.0
2018-May-14 05:00S 22°16' E 166°25'1 1.7
2018-May-14 04:30S 22°16' E 166°26'0 0.1
2018-May-14 04:00S 22°16' E 166°26'3 5.7
2018-May-14 03:30S 22°15' E 166°23'2 4.4
2018-May-14 03:00S 22°17' E 166°24'2 3.5
2018-May-14 02:30S 22°17' E 166°26'3 6.5
2018-May-14 02:00S 22°16' E 166°23'3 5.3
2018-May-14 01:30S 22°15' E 166°26'0 0.0
2018-May-14 01:00S 22°15' E 166°26'0 0.5
2018-May-14 00:30S 22°16' E 166°26'1 2.2
2018-May-14 00:00S 22°15' E 166°25'0 0.4
2018-May-13 23:30S 22°15' E 166°25'2 3.4
2018-May-13 23:00S 22°15' E 166°23'3 5.9
2018-May-13 22:30S 22°16' E 166°26'0 0.1
2018-May-13 22:00S 22°16' E 166°26'1 2.1
2018-May-13 21:30S 22°17' E 166°26'0 0.2
2018-May-13 21:00S 22°17' E 166°26'2 4.1
2018-May-13 20:30S 22°16' E 166°24'2 4.6
2018-May-13 20:00S 22°14' E 166°24'0 0.2
2018-May-13 19:29S 22°14' E 166°24'1 2.4
2018-May-13 19:00S 22°15' E 166°25'1 1.5
2018-May-13 18:30S 22°16' E 166°25'0 0.0
2018-May-13 00:32S 22°16' E 166°25'0 0.2
2018-May-13 00:30S 22°16' E 166°25'2 3.7
2018-May-13 00:00S 22°14' E 166°24'3 5.9
2018-May-12 23:30S 22°17' E 166°25'1 2.2
2018-May-12 23:00S 22°16' E 166°26'1 1.8
2018-May-12 22:30S 22°17' E 166°26'0 0.3
2018-May-12 22:00S 22°17' E 166°26'1 1.9
2018-May-12 21:30S 22°16' E 166°26'0 0.0
2018-May-12 21:00S 22°16' E 166°26'0 0.0
2018-May-12 20:30S 22°16' E 166°26'0 0.0
2018-May-12 20:00S 22°16' E 166°26'0 0.8
2018-May-12 19:30S 22°16' E 166°26'0 0.0
2018-May-12 19:00S 22°16' E 166°26'1 2.7
2018-May-12 18:30S 22°17' E 166°25'2 3.0
2018-May-12 18:00S 22°15' E 166°25'1 1.4
2018-May-12 17:30S 22°16' E 166°25'0 0.0
2018-May-12 17:00S 22°16' E 166°25'0 0.0
2018-May-12 16:30S 22°16' E 166°25'0 0.0
2018-May-12 16:00S 22°16' E 166°25'0 0.0
2018-May-12 15:30S 22°16' E 166°25'0 0.0
2018-May-12 15:00S 22°16' E 166°25'0 0.0
2018-May-12 14:30S 22°16' E 166°25'0 0.0
2018-May-12 13:59S 22°16' E 166°25'0 0.0
2018-May-12 13:30S 22°16' E 166°25'1 1.9
2018-May-12 13:00S 22°15' E 166°26'0 0.6
2018-May-12 12:30S 22°16' E 166°26'0 0.4
2018-May-12 12:00S 22°16' E 166°26'0 0.1
2018-May-12 11:30S 22°16' E 166°26'0 0.3
2018-May-12 11:00S 22°16' E 166°26'2 4.1
2018-May-12 10:30S 22°17' E 166°24'2 4.1
2018-May-12 10:00S 22°16' E 166°26'1 1.3
2018-May-12 09:30S 22°17' E 166°26'3 5.8
2018-May-12 09:00S 22°15' E 166°24'2 3.8
2018-May-12 08:30S 22°16' E 166°25'0 0.0
2018-May-12 08:00S 22°16' E 166°25'1 1.5
2018-May-12 07:30S 22°16' E 166°26'0 0.2
2018-May-12 07:00S 22°16' E 166°26'1 2.4
2018-May-12 06:30S 22°15' E 166°25'1 2.5
2018-May-12 06:00S 22°14' E 166°24'0 0.7
2018-May-12 05:30S 22°15' E 166°24'2 4.1
2018-May-12 05:00S 22°15' E 166°26'1 1.8
2018-May-12 04:30S 22°16' E 166°25'0 0.0
2018-May-12 04:00S 22°16' E 166°25'0 0.0
2018-May-12 03:30S 22°16' E 166°25'0 0.0
2018-May-12 03:00S 22°16' E 166°25'0 0.0
2018-May-12 02:30S 22°16' E 166°25'0 0.0
2018-May-12 02:00S 22°16' E 166°25'0 0.0
2018-May-12 01:30S 22°16' E 166°25'0 0.0
2018-May-12 01:00S 22°16' E 166°25'0 0.0
2018-May-12 00:30S 22°16' E 166°25'0 0.0
2018-May-12 00:00S 22°16' E 166°25'0 0.0
2018-May-11 23:30S 22°16' E 166°25'0 0.0
2018-May-11 23:00S 22°16' E 166°25'0 0.0
2018-May-11 22:30S 22°16' E 166°25'0 0.0
2018-May-11 22:00S 22°16' E 166°25'0 0.0
2018-May-11 21:30S 22°16' E 166°25'0 0.0
2018-May-11 21:00S 22°16' E 166°25'0 0.0
2018-May-11 20:30S 22°16' E 166°25'0 0.0
2018-May-11 20:00S 22°16' E 166°25'0 0.0
2018-May-11 19:30S 22°16' E 166°25'0 0.0
2018-May-11 19:00S 22°16' E 166°25'0 0.0
2018-May-11 18:30S 22°16' E 166°25'0 0.0
2018-May-11 18:00S 22°16' E 166°25'  

Dump ship's entire track history